Elko Regional Airport Elko US
ICAO: KEKO
IATA: EKO
Category: Medium
Scheduled Services: Yes

Elevation: 5140 ft
TransAlt. 18000 ft.

Airport Communications:
ASOS:119.275
SALT LAKE CNTR:132.25
CTAF:123
UNICOM:123

KEKO Zoom In..

If Map Doesn't Load, Click Here

Runways:

(A) RW 05 length 7214 ft width 150 ft
---- / hdg 53

(B) RW 12 length 2871 ft width 60 ft
---- / hdg 118

(C) RW 23 length 7214 ft width 150 ft
---- / hdg 233

(D) RW 30 length 2871 ft width 60 ft
---- / hdg 298

Location; KEKO
Day. 23 / Time. 07.56 Zulu
* Altimeter: 30.03
* Temperature: 09° c. 48.2°f.
* Wind from: 000° Speed 00 kn.
Dewpoint: -09° c.
Visibility: 10 Statute Miles.
Clouds: Clear (automated report).

KEKO 230756Z AUTO 00000KT 10SM CLR 09/M09 A3003 RMK AO2 SLP121 T00891094 403000000


Wind - Calm.

 
 
jpsmedia.com for Web Design worldairports.se 2018   terms of use